sensor_id;sensor_type;location;lat;lon;timestamp;pressure;altitude;pressure_sealevel;temperature;humidity
13387;BME280;6763;48.524;9.044;2023-05-02T00:00:29;97896.97;;;13.61;59.90
13387;BME280;6763;48.524;9.044;2023-05-02T00:02:55;97896.09;;;13.61;60.00
13387;BME280;6763;48.524;9.044;2023-05-02T00:05:21;97894.38;;;13.60;59.66
13387;BME280;6763;48.524;9.044;2023-05-02T00:07:46;97895.31;;;13.57;60.51
13387;BME280;6763;48.524;9.044;2023-05-02T00:10:12;97893.66;;;13.55;60.42
13387;BME280;6763;48.524;9.044;2023-05-02T00:12:37;97893.72;;;13.53;60.01
13387;BME280;6763;48.524;9.044;2023-05-02T00:15:03;97886.03;;;13.49;60.12
13387;BME280;6763;48.524;9.044;2023-05-02T00:17:29;97894.03;;;13.43;59.81
13387;BME280;6763;48.524;9.044;2023-05-02T00:19:54;97887.31;;;13.36;59.94
13387;BME280;6763;48.524;9.044;2023-05-02T00:22:20;97880.53;;;13.30;60.31
13387;BME280;6763;48.524;9.044;2023-05-02T00:24:45;97893.69;;;13.24;60.24
13387;BME280;6763;48.524;9.044;2023-05-02T00:27:10;97891.25;;;13.18;59.92
13387;BME280;6763;48.524;9.044;2023-05-02T00:29:36;97887.91;;;13.13;60.03
13387;BME280;6763;48.524;9.044;2023-05-02T00:32:01;97889.78;;;13.08;60.28
13387;BME280;6763;48.524;9.044;2023-05-02T00:34:30;97898.47;;;13.05;60.40
13387;BME280;6763;48.524;9.044;2023-05-02T00:36:55;97899.47;;;13.01;60.14
13387;BME280;6763;48.524;9.044;2023-05-02T00:39:21;97896.88;;;13.01;60.47
13387;BME280;6763;48.524;9.044;2023-05-02T00:41:46;97894.31;;;13.00;60.86
13387;BME280;6763;48.524;9.044;2023-05-02T00:44:12;97894.28;;;13.01;60.91
13387;BME280;6763;48.524;9.044;2023-05-02T00:46:37;97901.22;;;13.01;60.78
13387;BME280;6763;48.524;9.044;2023-05-02T00:49:03;97900.41;;;12.99;60.41
13387;BME280;6763;48.524;9.044;2023-05-02T00:51:28;97901.34;;;12.96;61.21
13387;BME280;6763;48.524;9.044;2023-05-02T00:53:53;97901.28;;;12.98;61.29
13387;BME280;6763;48.524;9.044;2023-05-02T00:56:20;97899.56;;;12.97;60.70
13387;BME280;6763;48.524;9.044;2023-05-02T00:58:46;97904.88;;;12.94;61.19
13387;BME280;6763;48.524;9.044;2023-05-02T01:01:23;97904.91;;;12.92;60.61
13387;BME280;6763;48.524;9.044;2023-05-02T01:04:03;97909.28;;;12.90;60.49
13387;BME280;6763;48.524;9.044;2023-05-02T01:06:47;97905.97;;;12.85;60.88
13387;BME280;6763;48.524;9.044;2023-05-02T01:12:07;97910.16;;;12.89;60.93
13387;BME280;6763;48.524;9.044;2023-05-02T01:14:41;97910.09;;;12.92;61.43
13387;BME280;6763;48.524;9.044;2023-05-02T01:17:11;97917.75;;;12.98;61.51
13387;BME280;6763;48.524;9.044;2023-05-02T01:19:42;97915.88;;;13.03;61.58
13387;BME280;6763;48.524;9.044;2023-05-02T01:22:10;97917.53;;;13.06;61.45
13387;BME280;6763;48.524;9.044;2023-05-02T01:25:01;97920.97;;;13.08;60.89
13387;BME280;6763;48.524;9.044;2023-05-02T01:28:00;97925.31;;;13.07;61.38
13387;BME280;6763;48.524;9.044;2023-05-02T01:30:31;97921.88;;;13.07;61.28
13387;BME280;6763;48.524;9.044;2023-05-02T01:32:58;97924.47;;;13.07;60.85
13387;BME280;6763;48.524;9.044;2023-05-02T01:35:26;97921.88;;;13.05;60.90
13387;BME280;6763;48.524;9.044;2023-05-02T01:37:53;97923.56;;;13.08;60.84
13387;BME280;6763;48.524;9.044;2023-05-02T01:40:20;97920.13;;;13.06;60.86
13387;BME280;6763;48.524;9.044;2023-05-02T01:42:49;97926.16;;;13.08;60.58
13387;BME280;6763;48.524;9.044;2023-05-02T01:45:15;97921.81;;;13.09;60.81
13387;BME280;6763;48.524;9.044;2023-05-02T01:47:42;97925.22;;;13.11;60.45
13387;BME280;6763;48.524;9.044;2023-05-02T01:50:10;97926.09;;;13.11;61.09
13387;BME280;6763;48.524;9.044;2023-05-02T01:52:37;97927.03;;;13.09;61.09
13387;BME280;6763;48.524;9.044;2023-05-02T01:55:08;97928.75;;;13.10;60.65
13387;BME280;6763;48.524;9.044;2023-05-02T01:57:37;97932.16;;;13.10;61.03
13387;BME280;6763;48.524;9.044;2023-05-02T02:00:04;97925.22;;;13.12;61.15
13387;BME280;6763;48.524;9.044;2023-05-02T02:02:33;97927.69;;;13.17;61.31
13387;BME280;6763;48.524;9.044;2023-05-02T02:05:00;97935.47;;;13.17;61.07
13387;BME280;6763;48.524;9.044;2023-05-02T02:07:26;97928.53;;;13.17;60.76
13387;BME280;6763;48.524;9.044;2023-05-02T02:09:52;97925.03;;;13.18;60.94
13387;BME280;6763;48.524;9.044;2023-05-02T02:12:40;97928.47;;;13.20;60.67
13387;BME280;6763;48.524;9.044;2023-05-02T02:15:35;97925.09;;;13.17;60.93
13387;BME280;6763;48.524;9.044;2023-05-02T02:18:11;97928.41;;;13.22;61.44
13387;BME280;6763;48.524;9.044;2023-05-02T02:20:41;97937.00;;;13.24;60.96
13387;BME280;6763;48.524;9.044;2023-05-02T02:23:07;97926.59;;;13.25;61.06
13387;BME280;6763;48.524;9.044;2023-05-02T02:25:34;97930.84;;;13.28;60.45
13387;BME280;6763;48.524;9.044;2023-05-02T02:28:00;97937.78;;;13.27;61.03
13387;BME280;6763;48.524;9.044;2023-05-02T02:30:25;97940.41;;;13.27;61.03
13387;BME280;6763;48.524;9.044;2023-05-02T02:32:51;97939.53;;;13.27;61.00
13387;BME280;6763;48.524;9.044;2023-05-02T02:35:16;97947.38;;;13.25;60.92
13387;BME280;6763;48.524;9.044;2023-05-02T02:38:05;97943.94;;;13.23;60.65
13387;BME280;6763;48.524;9.044;2023-05-02T02:40:41;97950.00;;;13.24;60.07
13387;BME280;6763;48.524;9.044;2023-05-02T02:45:59;97953.47;;;13.24;61.00
13387;BME280;6763;48.524;9.044;2023-05-02T02:51:07;97953.59;;;13.20;60.22
13387;BME280;6763;48.524;9.044;2023-05-02T02:56:29;97958.38;;;13.01;60.43
13387;BME280;6763;48.524;9.044;2023-05-02T02:59:04;97954.19;;;12.95;60.14
13387;BME280;6763;48.524;9.044;2023-05-02T03:01:31;97969.09;;;12.87;60.32
13387;BME280;6763;48.524;9.044;2023-05-02T03:03:58;97970.19;;;12.79;60.19
13387;BME280;6763;48.524;9.044;2023-05-02T03:06:25;97976.41;;;12.73;60.12
13387;BME280;6763;48.524;9.044;2023-05-02T03:08:51;97976.53;;;12.67;60.57
13387;BME280;6763;48.524;9.044;2023-05-02T03:11:17;97979.25;;;12.63;60.18
13387;BME280;6763;48.524;9.044;2023-05-02T03:13:42;97981.09;;;12.58;60.28
13387;BME280;6763;48.524;9.044;2023-05-02T03:16:33;97977.84;;;12.50;60.00
13387;BME280;6763;48.524;9.044;2023-05-02T03:18:59;97987.47;;;12.44;60.41
13387;BME280;6763;48.524;9.044;2023-05-02T03:21:24;97991.06;;;12.39;60.43
13387;BME280;6763;48.524;9.044;2023-05-02T03:23:50;97992.84;;;12.35;60.20
13387;BME280;6763;48.524;9.044;2023-05-02T03:26:15;97997.22;;;12.33;60.55
13387;BME280;6763;48.524;9.044;2023-05-02T03:28:41;98003.34;;;12.31;60.97
13387;BME280;6763;48.524;9.044;2023-05-02T03:31:06;98001.63;;;12.30;60.62
13387;BME280;6763;48.524;9.044;2023-05-02T03:33:31;98009.41;;;12.30;60.81
13387;BME280;6763;48.524;9.044;2023-05-02T03:35:57;98011.13;;;12.31;60.60
13387;BME280;6763;48.524;9.044;2023-05-02T03:38:22;98015.41;;;12.33;61.00
13387;BME280;6763;48.524;9.044;2023-05-02T03:40:48;98021.41;;;12.35;60.64
13387;BME280;6763;48.524;9.044;2023-05-02T03:43:13;98024.00;;;12.35;60.79
13387;BME280;6763;48.524;9.044;2023-05-02T03:45:38;98022.31;;;12.34;61.03
13387;BME280;6763;48.524;9.044;2023-05-02T03:48:04;98026.63;;;12.34;60.33
13387;BME280;6763;48.524;9.044;2023-05-02T03:50:29;98032.69;;;12.33;60.41
13387;BME280;6763;48.524;9.044;2023-05-02T03:52:55;98033.69;;;12.27;60.31
13387;BME280;6763;48.524;9.044;2023-05-02T03:55:20;98039.78;;;12.26;60.21
13387;BME280;6763;48.524;9.044;2023-05-02T03:57:46;98037.13;;;12.28;60.52
13387;BME280;6763;48.524;9.044;2023-05-02T04:00:11;98044.94;;;12.28;60.15
13387;BME280;6763;48.524;9.044;2023-05-02T04:02:36;98046.72;;;12.26;60.20
13387;BME280;6763;48.524;9.044;2023-05-02T04:05:02;98053.59;;;12.27;60.65
13387;BME280;6763;48.524;9.044;2023-05-02T04:07:28;98057.09;;;12.26;60.47
13387;BME280;6763;48.524;9.044;2023-05-02T04:09:53;98058.78;;;12.27;60.52
13387;BME280;6763;48.524;9.044;2023-05-02T04:12:18;98060.47;;;12.29;60.09
13387;BME280;6763;48.524;9.044;2023-05-02T04:14:44;98068.22;;;12.31;60.85
13387;BME280;6763;48.524;9.044;2023-05-02T04:17:09;98063.00;;;12.32;60.37
13387;BME280;6763;48.524;9.044;2023-05-02T04:19:35;98062.13;;;12.33;60.19
13387;BME280;6763;48.524;9.044;2023-05-02T04:22:01;98070.69;;;12.37;60.48
13387;BME280;6763;48.524;9.044;2023-05-02T04:24:27;98071.47;;;12.40;60.65
13387;BME280;6763;48.524;9.044;2023-05-02T04:26:53;98069.69;;;12.44;60.77
13387;BME280;6763;48.524;9.044;2023-05-02T04:29:18;98074.81;;;12.47;60.24
13387;BME280;6763;48.524;9.044;2023-05-02T04:31:44;98076.44;;;12.53;60.44
13387;BME280;6763;48.524;9.044;2023-05-02T04:34:09;98078.91;;;12.57;60.58
13387;BME280;6763;48.524;9.044;2023-05-02T04:36:34;98084.81;;;12.64;60.31
13387;BME280;6763;48.524;9.044;2023-05-02T04:39:00;98082.16;;;12.67;60.75
13387;BME280;6763;48.524;9.044;2023-05-02T04:41:26;98088.09;;;12.72;60.19
13387;BME280;6763;48.524;9.044;2023-05-02T04:43:51;98089.72;;;12.77;60.20
13387;BME280;6763;48.524;9.044;2023-05-02T04:46:17;98092.19;;;12.82;60.51
13387;BME280;6763;48.524;9.044;2023-05-02T04:48:42;98095.53;;;12.87;60.82
13387;BME280;6763;48.524;9.044;2023-05-02T04:51:09;98087.56;;;12.94;60.53
13387;BME280;6763;48.524;9.044;2023-05-02T04:53:35;98094.34;;;13.01;60.49
13387;BME280;6763;48.524;9.044;2023-05-02T04:56:00;98098.53;;;13.09;60.51
13387;BME280;6763;48.524;9.044;2023-05-02T04:58:26;98097.50;;;13.16;59.87
13387;BME280;6763;48.524;9.044;2023-05-02T05:00:51;98093.03;;;13.22;60.01
13387;BME280;6763;48.524;9.044;2023-05-02T05:03:16;98101.50;;;13.29;60.43
13387;BME280;6763;48.524;9.044;2023-05-02T05:05:42;98098.78;;;13.35;60.42
13387;BME280;6763;48.524;9.044;2023-05-02T05:08:07;98100.38;;;13.40;60.08
13387;BME280;6763;48.524;9.044;2023-05-02T05:10:32;98106.31;;;13.45;60.41
13387;BME280;6763;48.524;9.044;2023-05-02T05:12:58;98112.16;;;13.53;59.95
13387;BME280;6763;48.524;9.044;2023-05-02T05:15:23;98115.47;;;13.60;60.58
13387;BME280;6763;48.524;9.044;2023-05-02T05:17:50;98104.13;;;13.62;60.31
13387;BME280;6763;48.524;9.044;2023-05-02T05:20:15;98116.97;;;13.68;60.28
13387;BME280;6763;48.524;9.044;2023-05-02T05:22:41;98109.03;;;13.73;60.46
13387;BME280;6763;48.524;9.044;2023-05-02T05:25:10;98105.38;;;13.82;60.24
13387;BME280;6763;48.524;9.044;2023-05-02T05:27:36;98105.97;;;13.91;60.71
13387;BME280;6763;48.524;9.044;2023-05-02T05:30:03;98108.34;;;14.00;60.24
13387;BME280;6763;48.524;9.044;2023-05-02T05:32:28;98115.16;;;14.04;59.74
13387;BME280;6763;48.524;9.044;2023-05-02T05:34:53;98115.06;;;14.07;59.96
13387;BME280;6763;48.524;9.044;2023-05-02T05:37:19;98124.50;;;14.11;60.11
13387;BME280;6763;48.524;9.044;2023-05-02T05:39:45;98122.63;;;14.16;60.12
13387;BME280;6763;48.524;9.044;2023-05-02T05:42:11;98132.00;;;14.23;60.19
13387;BME280;6763;48.524;9.044;2023-05-02T05:44:37;98135.22;;;14.33;60.13
13387;BME280;6763;48.524;9.044;2023-05-02T05:47:02;98134.09;;;14.42;60.47
13387;BME280;6763;48.524;9.044;2023-05-02T05:49:28;98141.72;;;14.48;59.95
13387;BME280;6763;48.524;9.044;2023-05-02T05:51:53;98142.56;;;14.50;59.98
13387;BME280;6763;48.524;9.044;2023-05-02T05:54:18;98145.16;;;14.50;59.52
13387;BME280;6763;48.524;9.044;2023-05-02T05:56:44;98147.84;;;14.47;59.19
13387;BME280;6763;48.524;9.044;2023-05-02T05:59:10;98156.59;;;14.44;59.58
13387;BME280;6763;48.524;9.044;2023-05-02T06:01:35;98163.63;;;14.42;59.69
13387;BME280;6763;48.524;9.044;2023-05-02T06:04:00;98163.63;;;14.42;59.33
13387;BME280;6763;48.524;9.044;2023-05-02T06:06:27;98173.19;;;14.42;59.21
13387;BME280;6763;48.524;9.044;2023-05-02T06:08:53;98169.78;;;14.38;59.17
13387;BME280;6763;48.524;9.044;2023-05-02T06:11:18;98164.66;;;14.35;59.00
13387;BME280;6763;48.524;9.044;2023-05-02T06:13:44;98171.66;;;14.33;59.47
13387;BME280;6763;48.524;9.044;2023-05-02T06:16:09;98173.38;;;14.34;59.26
13387;BME280;6763;48.524;9.044;2023-05-02T06:18:34;98176.78;;;14.36;59.53
13387;BME280;6763;48.524;9.044;2023-05-02T06:21:05;98177.53;;;14.40;59.60
13387;BME280;6763;48.524;9.044;2023-05-02T06:23:30;98178.31;;;14.43;59.52
13387;BME280;6763;48.524;9.044;2023-05-02T06:26:01;98190.19;;;14.53;59.33
13387;BME280;6763;48.524;9.044;2023-05-02T06:28:27;98182.16;;;14.61;59.20
13387;BME280;6763;48.524;9.044;2023-05-02T06:31:10;98188.88;;;14.69;58.36
13387;BME280;6763;48.524;9.044;2023-05-02T06:33:36;98197.25;;;14.80;58.83
13387;BME280;6763;48.524;9.044;2023-05-02T06:36:01;98198.69;;;14.90;58.52
13387;BME280;6763;48.524;9.044;2023-05-02T06:38:27;98194.00;;;15.02;58.16
13387;BME280;6763;48.524;9.044;2023-05-02T06:40:52;98194.41;;;15.17;58.32
13387;BME280;6763;48.524;9.044;2023-05-02T06:43:18;98198.22;;;15.35;58.04
13387;BME280;6763;48.524;9.044;2023-05-02T06:45:43;98200.22;;;15.55;57.69
13387;BME280;6763;48.524;9.044;2023-05-02T06:48:09;98203.19;;;15.70;57.42
13387;BME280;6763;48.524;9.044;2023-05-02T06:50:35;98206.91;;;15.89;57.01
13387;BME280;6763;48.524;9.044;2023-05-02T06:53:00;98211.63;;;16.04;56.57
13387;BME280;6763;48.524;9.044;2023-05-02T06:55:26;98218.06;;;16.19;56.61
13387;BME280;6763;48.524;9.044;2023-05-02T06:57:53;98217.59;;;16.33;56.16
13387;BME280;6763;48.524;9.044;2023-05-02T07:00:19;98216.44;;;16.41;55.81
13387;BME280;6763;48.524;9.044;2023-05-02T07:02:45;98215.31;;;16.48;55.59
13387;BME280;6763;48.524;9.044;2023-05-02T07:05:11;98218.63;;;16.53;55.44
13387;BME280;6763;48.524;9.044;2023-05-02T07:07:36;98226.22;;;16.61;55.28
13387;BME280;6763;48.524;9.044;2023-05-02T07:10:02;98220.81;;;16.65;55.00
13387;BME280;6763;48.524;9.044;2023-05-02T07:12:28;98230.38;;;16.66;54.57
13387;BME280;6763;48.524;9.044;2023-05-02T07:14:53;98225.06;;;16.68;54.39
13387;BME280;6763;48.524;9.044;2023-05-02T07:17:18;98227.47;;;16.74;55.02
13387;BME280;6763;48.524;9.044;2023-05-02T07:19:44;98234.25;;;16.80;54.07
13387;BME280;6763;48.524;9.044;2023-05-02T07:22:09;98231.56;;;16.81;54.06
13387;BME280;6763;48.524;9.044;2023-05-02T07:24:39;98238.31;;;16.88;54.03
13387;BME280;6763;48.524;9.044;2023-05-02T07:27:05;98238.88;;;16.96;53.72
13387;BME280;6763;48.524;9.044;2023-05-02T07:29:31;98227.94;;;17.08;53.93
13387;BME280;6763;48.524;9.044;2023-05-02T07:31:56;98229.13;;;17.23;53.53
13387;BME280;6763;48.524;9.044;2023-05-02T07:34:21;98223.47;;;17.33;52.99
13387;BME280;6763;48.524;9.044;2023-05-02T07:36:47;98235.19;;;17.47;53.23
13387;BME280;6763;48.524;9.044;2023-05-02T07:39:12;98233.81;;;17.60;52.92
13387;BME280;6763;48.524;9.044;2023-05-02T07:41:37;98231.63;;;17.71;52.47
13387;BME280;6763;48.524;9.044;2023-05-02T07:44:03;98244.34;;;17.80;52.28
13387;BME280;6763;48.524;9.044;2023-05-02T07:46:28;98228.16;;;17.92;52.06
13387;BME280;6763;48.524;9.044;2023-05-02T07:48:53;98231.00;;;18.08;51.60
13387;BME280;6763;48.524;9.044;2023-05-02T07:51:19;98245.16;;;18.24;51.42
13387;BME280;6763;48.524;9.044;2023-05-02T07:53:46;98237.31;;;18.44;50.72
13387;BME280;6763;48.524;9.044;2023-05-02T07:56:11;98241.16;;;18.57;50.31
13387;BME280;6763;48.524;9.044;2023-05-02T07:58:37;98239.97;;;18.64;49.92
13387;BME280;6763;48.524;9.044;2023-05-02T08:01:02;98240.47;;;18.72;49.56
13387;BME280;6763;48.524;9.044;2023-05-02T08:03:29;98240.06;;;18.81;49.52
13387;BME280;6763;48.524;9.044;2023-05-02T08:05:54;98248.56;;;18.86;48.87
13387;BME280;6763;48.524;9.044;2023-05-02T08:08:20;98247.88;;;18.83;48.71
13387;BME280;6763;48.524;9.044;2023-05-02T08:10:45;98260.34;;;18.78;48.01
13387;BME280;6763;48.524;9.044;2023-05-02T08:13:11;98262.56;;;18.67;48.30
13387;BME280;6763;48.524;9.044;2023-05-02T08:15:37;98264.66;;;18.58;48.41
13387;BME280;6763;48.524;9.044;2023-05-02T08:18:02;98266.50;;;18.56;48.48
13387;BME280;6763;48.524;9.044;2023-05-02T08:20:27;98260.31;;;18.57;48.37
13387;BME280;6763;48.524;9.044;2023-05-02T08:22:53;98267.28;;;18.58;47.77
13387;BME280;6763;48.524;9.044;2023-05-02T08:25:18;98270.00;;;18.57;47.95
13387;BME280;6763;48.524;9.044;2023-05-02T08:27:44;98267.28;;;18.58;47.41
13387;BME280;6763;48.524;9.044;2023-05-02T08:30:10;98268.16;;;18.59;47.82
13387;BME280;6763;48.524;9.044;2023-05-02T08:32:35;98261.50;;;18.71;48.02
13387;BME280;6763;48.524;9.044;2023-05-02T08:35:01;98268.69;;;18.86;47.47
13387;BME280;6763;48.524;9.044;2023-05-02T08:37:27;98264.34;;;19.05;46.83
13387;BME280;6763;48.524;9.044;2023-05-02T08:39:52;98272.28;;;19.22;46.57
13387;BME280;6763;48.524;9.044;2023-05-02T08:42:18;98264.78;;;19.33;46.21
13387;BME280;6763;48.524;9.044;2023-05-02T08:44:45;98260.03;;;19.43;46.07
13387;BME280;6763;48.524;9.044;2023-05-02T08:47:12;98263.69;;;19.57;45.82
13387;BME280;6763;48.524;9.044;2023-05-02T08:49:40;98264.19;;;19.65;45.69
13387;BME280;6763;48.524;9.044;2023-05-02T08:52:07;98271.75;;;19.71;45.49
13387;BME280;6763;48.524;9.044;2023-05-02T08:54:33;98270.06;;;19.70;45.26
13387;BME280;6763;48.524;9.044;2023-05-02T08:56:58;98271.13;;;19.66;45.49
13387;BME280;6763;48.524;9.044;2023-05-02T08:59:27;98280.72;;;19.67;45.78
13387;BME280;6763;48.524;9.044;2023-05-02T09:01:57;98279.59;;;19.73;45.66
13387;BME280;6763;48.524;9.044;2023-05-02T09:04:31;98271.47;;;19.77;45.48
13387;BME280;6763;48.524;9.044;2023-05-02T09:06:59;98280.13;;;19.79;45.19
13387;BME280;6763;48.524;9.044;2023-05-02T09:09:25;98280.38;;;19.92;45.19
13387;BME280;6763;48.524;9.044;2023-05-02T09:11:51;98289.59;;;20.19;45.13
13387;BME280;6763;48.524;9.044;2023-05-02T09:14:17;98290.72;;;20.50;44.56
13387;BME280;6763;48.524;9.044;2023-05-02T09:16:43;98285.59;;;20.81;44.12
13387;BME280;6763;48.524;9.044;2023-05-02T09:19:09;98286.75;;;21.10;43.79
13387;BME280;6763;48.524;9.044;2023-05-02T09:21:39;98293.94;;;21.39;43.31
13387;BME280;6763;48.524;9.044;2023-05-02T09:24:34;98278.31;;;21.67;42.82
13387;BME280;6763;48.524;9.044;2023-05-02T09:27:02;98284.53;;;21.97;42.32
13387;BME280;6763;48.524;9.044;2023-05-02T09:29:28;98277.19;;;22.18;41.88
13387;BME280;6763;48.524;9.044;2023-05-02T09:32:05;98281.31;;;22.53;41.24
13387;BME280;6763;48.524;9.044;2023-05-02T09:34:30;98277.25;;;22.92;40.88
13387;BME280;6763;48.524;9.044;2023-05-02T09:36:56;98276.41;;;23.33;40.05
13387;BME280;6763;48.524;9.044;2023-05-02T09:39:27;98276.13;;;23.66;38.95
13387;BME280;6763;48.524;9.044;2023-05-02T09:41:56;98273.91;;;23.87;38.20
13387;BME280;6763;48.524;9.044;2023-05-02T09:44:24;98273.81;;;23.88;37.54
13387;BME280;6763;48.524;9.044;2023-05-02T09:46:51;98274.75;;;23.87;38.02
13387;BME280;6763;48.524;9.044;2023-05-02T09:49:18;98278.06;;;23.91;38.13
13387;BME280;6763;48.524;9.044;2023-05-02T09:51:47;98278.69;;;23.94;37.69
13387;BME280;6763;48.524;9.044;2023-05-02T09:54:13;98281.56;;;23.91;37.45
13387;BME280;6763;48.524;9.044;2023-05-02T09:56:52;98278.63;;;23.82;37.45
13387;BME280;6763;48.524;9.044;2023-05-02T09:59:20;98286.94;;;23.90;37.74
13387;BME280;6763;48.524;9.044;2023-05-02T10:01:54;98283.78;;;23.97;37.18
13387;BME280;6763;48.524;9.044;2023-05-02T10:04:19;98278.38;;;24.13;37.19
13387;BME280;6763;48.524;9.044;2023-05-02T10:06:46;98276.19;;;24.20;35.87
13387;BME280;6763;48.524;9.044;2023-05-02T10:09:13;98271.84;;;24.19;36.11
13387;BME280;6763;48.524;9.044;2023-05-02T10:11:40;98272.97;;;24.41;35.89
13387;BME280;6763;48.524;9.044;2023-05-02T10:14:10;98274.75;;;24.80;35.09
13387;BME280;6763;48.524;9.044;2023-05-02T10:17:00;98270.13;;;25.34;35.03
13387;BME280;6763;48.524;9.044;2023-05-02T10:19:29;98271.00;;;25.71;34.47
13387;BME280;6763;48.524;9.044;2023-05-02T10:21:58;98274.97;;;25.89;33.85
13387;BME280;6763;48.524;9.044;2023-05-02T10:24:24;98279.91;;;26.06;33.37
13387;BME280;6763;48.524;9.044;2023-05-02T10:26:50;98276.63;;;26.03;33.18
13387;BME280;6763;48.524;9.044;2023-05-02T10:29:16;98279.13;;;25.93;33.57
13387;BME280;6763;48.524;9.044;2023-05-02T10:31:43;98267.56;;;26.18;33.24
13387;BME280;6763;48.524;9.044;2023-05-02T10:34:10;98272.59;;;26.33;32.49
13387;BME280;6763;48.524;9.044;2023-05-02T10:36:36;98264.69;;;26.21;32.61
13387;BME280;6763;48.524;9.044;2023-05-02T10:39:02;98264.91;;;26.41;32.72
13387;BME280;6763;48.524;9.044;2023-05-02T10:41:30;98258.78;;;26.98;31.95
13387;BME280;6763;48.524;9.044;2023-05-02T10:43:56;98257.75;;;27.45;31.51
13387;BME280;6763;48.524;9.044;2023-05-02T10:46:38;98256.91;;;27.55;30.85
13387;BME280;6763;48.524;9.044;2023-05-02T10:49:55;98255.34;;;27.31;30.55
13387;BME280;6763;48.524;9.044;2023-05-02T11:00:22;98268.28;;;25.35;32.14
13387;BME280;6763;48.524;9.044;2023-05-02T11:02:48;98268.19;;;24.86;32.66
13387;BME280;6763;48.524;9.044;2023-05-02T11:05:14;98261.84;;;24.36;32.99
13387;BME280;6763;48.524;9.044;2023-05-02T11:07:39;98256.47;;;23.97;33.68
13387;BME280;6763;48.524;9.044;2023-05-02T11:12:47;98266.09;;;23.71;34.60
13387;BME280;6763;48.524;9.044;2023-05-02T11:15:59;98265.53;;;23.80;34.43
13387;BME280;6763;48.524;9.044;2023-05-02T11:18:00;98258.81;;;23.89;34.42
13387;BME280;6763;48.524;9.044;2023-05-02T11:20:27;98264.97;;;24.02;34.47
13387;BME280;6763;48.524;9.044;2023-05-02T11:22:53;98256.84;;;24.32;34.14
13387;BME280;6763;48.524;9.044;2023-05-02T11:25:36;98255.31;;;24.54;33.74
13387;BME280;6763;48.524;9.044;2023-05-02T11:28:04;98250.56;;;24.59;33.81
13387;BME280;6763;48.524;9.044;2023-05-02T11:30:38;98260.91;;;24.37;33.21
13387;BME280;6763;48.524;9.044;2023-05-02T11:35:29;98247.38;;;23.88;34.21
13387;BME280;6763;48.524;9.044;2023-05-02T11:37:56;98252.31;;;23.80;34.19
13387;BME280;6763;48.524;9.044;2023-05-02T11:40:24;98251.56;;;23.78;34.30
13387;BME280;6763;48.524;9.044;2023-05-02T11:42:50;98246.72;;;23.85;34.44
13387;BME280;6763;48.524;9.044;2023-05-02T11:45:16;98247.69;;;24.11;34.47
13387;BME280;6763;48.524;9.044;2023-05-02T11:47:43;98244.53;;;24.57;33.82
13387;BME280;6763;48.524;9.044;2023-05-02T11:50:11;98242.78;;;25.21;33.21
13387;BME280;6763;48.524;9.044;2023-05-02T11:52:42;98237.91;;;26.00;32.21
13387;BME280;6763;48.524;9.044;2023-05-02T11:55:14;98233.03;;;26.76;31.31
13387;BME280;6763;48.524;9.044;2023-05-02T11:57:40;98238.66;;;27.29;30.29
13387;BME280;6763;48.524;9.044;2023-05-02T12:00:06;98231.44;;;27.42;29.92
13387;BME280;6763;48.524;9.044;2023-05-02T12:02:39;98235.72;;;27.32;30.13
13387;BME280;6763;48.524;9.044;2023-05-02T12:05:06;98241.44;;;27.05;30.07
13387;BME280;6763;48.524;9.044;2023-05-02T12:10:05;98230.09;;;26.22;30.06
13387;BME280;6763;48.524;9.044;2023-05-02T12:12:31;98238.69;;;25.89;30.38
13387;BME280;6763;48.524;9.044;2023-05-02T12:14:56;98231.16;;;25.60;30.68
13387;BME280;6763;48.524;9.044;2023-05-02T12:17:22;98240.97;;;25.34;31.21
13387;BME280;6763;48.524;9.044;2023-05-02T12:19:48;98242.34;;;25.14;31.45
13387;BME280;6763;48.524;9.044;2023-05-02T12:22:14;98239.66;;;25.40;30.95
13387;BME280;6763;48.524;9.044;2023-05-02T12:24:41;98224.53;;;26.02;29.05
13387;BME280;6763;48.524;9.044;2023-05-02T12:27:14;98228.34;;;26.91;28.02
13387;BME280;6763;48.524;9.044;2023-05-02T12:29:44;98224.59;;;27.82;26.57
13387;BME280;6763;48.524;9.044;2023-05-02T12:32:11;98225.34;;;28.48;26.43
13387;BME280;6763;48.524;9.044;2023-05-02T12:34:37;98219.81;;;28.40;26.67
13387;BME280;6763;48.524;9.044;2023-05-02T12:37:04;98225.19;;;28.28;26.91
13387;BME280;6763;48.524;9.044;2023-05-02T12:39:39;98225.13;;;27.97;26.74
13387;BME280;6763;48.524;9.044;2023-05-02T12:42:20;98228.16;;;27.49;27.58
13387;BME280;6763;48.524;9.044;2023-05-02T12:44:47;98225.25;;;27.08;28.12
13387;BME280;6763;48.524;9.044;2023-05-02T12:47:14;98227.09;;;26.73;28.52
13387;BME280;6763;48.524;9.044;2023-05-02T12:49:56;98231.22;;;26.42;28.86
13387;BME280;6763;48.524;9.044;2023-05-02T12:52:45;98228.09;;;26.13;28.65
13387;BME280;6763;48.524;9.044;2023-05-02T12:55:29;98228.50;;;25.96;29.17
13387;BME280;6763;48.524;9.044;2023-05-02T12:58:09;98222.59;;;26.16;29.04
13387;BME280;6763;48.524;9.044;2023-05-02T13:00:40;98220.41;;;27.02;27.58
13387;BME280;6763;48.524;9.044;2023-05-02T13:03:07;98217.28;;;27.95;26.13
13387;BME280;6763;48.524;9.044;2023-05-02T13:05:34;98219.56;;;28.00;25.71
13387;BME280;6763;48.524;9.044;2023-05-02T13:07:59;98228.81;;;27.74;25.98
13387;BME280;6763;48.524;9.044;2023-05-02T13:10:25;98227.41;;;27.36;25.70
13387;BME280;6763;48.524;9.044;2023-05-02T13:12:51;98237.81;;;26.95;25.69
13387;BME280;6763;48.524;9.044;2023-05-02T13:15:17;98233.19;;;26.51;25.61
13387;BME280;6763;48.524;9.044;2023-05-02T13:17:43;98232.16;;;26.06;26.54
13387;BME280;6763;48.524;9.044;2023-05-02T13:20:09;98234.50;;;25.74;27.10
13387;BME280;6763;48.524;9.044;2023-05-02T13:22:34;98243.69;;;25.33;27.54
13387;BME280;6763;48.524;9.044;2023-05-02T13:25:04;98239.81;;;24.88;28.08
13387;BME280;6763;48.524;9.044;2023-05-02T13:27:30;98232.47;;;24.53;28.64
13387;BME280;6763;48.524;9.044;2023-05-02T13:29:55;98244.63;;;24.43;29.15
13387;BME280;6763;48.524;9.044;2023-05-02T13:32:21;98239.94;;;24.34;28.71
13387;BME280;6763;48.524;9.044;2023-05-02T13:34:46;98235.56;;;24.33;28.70
13387;BME280;6763;48.524;9.044;2023-05-02T13:37:12;98231.28;;;24.70;28.89
13387;BME280;6763;48.524;9.044;2023-05-02T13:39:37;98233.94;;;25.46;27.65